Observation data for Roaring Springs on 10/18/2019      Previous  Date       Current Mesonet Observations  Soil Data  Daily Summary Page  Observations in Plain Language
KRRS 180500Z 18009KT 14/04 A2986 RMK A01 T01430038  RH  050%=      5-min Rain = 0
KRRS 180505Z 18008KT 14/04 A2986 RMK A01 T01380038  RH  052%=      5-min Rain = 0
KRRS 180510Z 18009KT 14/04 A2985 RMK A01 T01400036  RH  050%=      5-min Rain = 0
KRRS 180515Z 18009KT 14/04 A2985 RMK A01 T01410035  RH  050%=      5-min Rain = 0
KRRS 180520Z 18009KT 14/04 A2985 RMK A01 T01390035  RH  051%=      5-min Rain = 0
KRRS 180525Z 17009KT 14/03 A2985 RMK A01 T01360034  RH  051%=      5-min Rain = 0
KRRS 180530Z 18009KT 13/03 A2985 RMK A01 T01340034  RH  052%=      5-min Rain = 0
KRRS 180535Z 18009KT 13/03 A2985 RMK A01 T01310034  RH  053%=      5-min Rain = 0
KRRS 180540Z 18010KT 13/03 A2985 RMK A01 T01330032  RH  051%=      5-min Rain = 0
KRRS 180545Z 18010KT 13/03 A2985 RMK A01 T01320031  RH  051%=      5-min Rain = 0
KRRS 180550Z 18010KT 13/03 A2985 RMK A01 T01320031  RH  051%=      5-min Rain = 0
KRRS 180555Z 18009KT 13/03 A2984 RMK A01 T01330031  RH  051%=      5-min Rain = 0
KRRS 180600Z 18009KT 13/03 A2984 RMK A01 T01320031  RH  051%=      5-min Rain = 0
KRRS 180605Z 18009KT 13/03 A2984 RMK A01 T01300032  RH  052%=      5-min Rain = 0
KRRS 180610Z 18009KT 13/03 A2984 RMK A01 T01290032  RH  052%=      5-min Rain = 0
KRRS 180615Z 17009KT 13/03 A2984 RMK A01 T01280032  RH  053%=      5-min Rain = 0
KRRS 180620Z 18010KT 13/03 A2984 RMK A01 T01290032  RH  053%=      5-min Rain = 0
KRRS 180625Z 19009KT 13/03 A2984 RMK A01 T01290032  RH  053%=      5-min Rain = 0
KRRS 180630Z 19008KT 13/03 A2984 RMK A01 T01270032  RH  053%=      5-min Rain = 0
KRRS 180635Z 19008KT 13/03 A2984 RMK A01 T01260032  RH  054%=      5-min Rain = 0
KRRS 180640Z 18008KT 13/03 A2984 RMK A01 T01260032  RH  054%=      5-min Rain = 0
KRRS 180645Z 19008KT 13/03 A2984 RMK A01 T01300031  RH  052%=      5-min Rain = 0
KRRS 180650Z 18009KT 13/03 A2984 RMK A01 T01330032  RH  051%=      5-min Rain = 0
KRRS 180655Z 18010KT 14/03 A2983 RMK A01 T01360031  RH  050%=      5-min Rain = 0
KRRS 180700Z 17010KT 14/03 A2983 RMK A01 T01400029  RH  048%=      5-min Rain = 0
KRRS 180705Z 17009KT 14/03 A2983 RMK A01 T01430029  RH  047%=      5-min Rain = 0
KRRS 180710Z 17008KT 14/03 A2983 RMK A01 T01410028  RH  047%=      5-min Rain = 0
KRRS 180715Z 18008KT 14/03 A2983 RMK A01 T01380029  RH  048%=      5-min Rain = 0
KRRS 180720Z 18008KT 14/03 A2983 RMK A01 T01350029  RH  049%=      5-min Rain = 0
KRRS 180725Z 18007KT 13/03 A2983 RMK A01 T01330028  RH  050%=      5-min Rain = 0
KRRS 180730Z 18007KT 13/03 A2983 RMK A01 T01330027  RH  049%=      5-min Rain = 0
KRRS 180735Z 18008KT 13/03 A2983 RMK A01 T01330026  RH  049%=      5-min Rain = 0
KRRS 180740Z 18009KT 13/02 A2983 RMK A01 T01340023  RH  047%=      5-min Rain = 0
KRRS 180745Z 18011KT 14/02 A2983 RMK A01 T01390019  RH  045%=      5-min Rain = 0
KRRS 180750Z 18010KT 14/02 A2983 RMK A01 T01420018  RH  044%=      5-min Rain = 0
KRRS 180755Z 18010KT 14/02 A2983 RMK A01 T01420018  RH  044%=      5-min Rain = 0
KRRS 180800Z 18009KT 14/02 A2983 RMK A01 T01430018  RH  043%=      5-min Rain = 0
KRRS 180805Z 17009KT 14/02 A2982 RMK A01 T01440017  RH  043%=      5-min Rain = 0
KRRS 180810Z 18011KT 15/02 A2982 RMK A01 T01460018  RH  043%=      5-min Rain = 0
KRRS 180815Z 19011KT 15/02 A2982 RMK A01 T01470019  RH  043%=      5-min Rain = 0
KRRS 180820Z 19011KT 15/02 A2982 RMK A01 T01460021  RH  044%=      5-min Rain = 0
KRRS 180825Z 19011KT 15/02 A2982 RMK A01 T01450023  RH  044%=      5-min Rain = 0
KRRS 180830Z 19010KT 14/02 A2982 RMK A01 T01440024  RH  045%=      5-min Rain = 0
KRRS 180835Z 19009KT 14/03 A2982 RMK A01 T01440027  RH  046%=      5-min Rain = 0
KRRS 180840Z 19008KT 14/03 A2982 RMK A01 T01420029  RH  047%=      5-min Rain = 0
KRRS 180845Z 19008KT 14/03 A2981 RMK A01 T01400031  RH  049%=      5-min Rain = 0
KRRS 180850Z 19007KT 14/03 A2981 RMK A01 T01380034  RH  050%=      5-min Rain = 0
KRRS 180855Z 20006KT 14/04 A2981 RMK A01 T01350036  RH  052%=      5-min Rain = 0
KRRS 180900Z 21005KT 13/04 A2981 RMK A01 T01320036  RH  053%=      5-min Rain = 0
KRRS 180905Z 20006KT 13/04 A2981 RMK A01 T01300038  RH  055%=      5-min Rain = 0
KRRS 180910Z 20006KT 13/04 A298 RMK A01 T01270039  RH  056%=      5-min Rain = 0
KRRS 180915Z 20007KT 13/04 A298 RMK A01 T01270040  RH  056%=      5-min Rain = 0
KRRS 180920Z 20006KT 13/04 A298 RMK A01 T01260042  RH  058%=      5-min Rain = 0
KRRS 180925Z 20005KT 12/04 A298 RMK A01 T01240043  RH  059%=      5-min Rain = 0
KRRS 180930Z 20005KT 12/04 A298 RMK A01 T01230044  RH  059%=      5-min Rain = 0
KRRS 180935Z 20005KT 13/05 A298 RMK A01 T01250046  RH  060%=      5-min Rain = 0
KRRS 180940Z 20005KT 13/05 A298 RMK A01 T01260047  RH  060%=      5-min Rain = 0
KRRS 180945Z 19006KT 13/05 A298 RMK A01 T01270051  RH  061%=      5-min Rain = 0
KRRS 180950Z 19006KT 13/05 A298 RMK A01 T01270054  RH  063%=      5-min Rain = 0
KRRS 180955Z 20006KT 13/06 A2979 RMK A01 T01270057  RH  064%=      5-min Rain = 0
KRRS 181000Z 20005KT 13/06 A2979 RMK A01 T01250058  RH  065%=      5-min Rain = 0
KRRS 181005Z 21006KT 13/06 A2979 RMK A01 T01250061  RH  067%=      5-min Rain = 0
KRRS 181010Z 21006KT 13/07 A2979 RMK A01 T01260065  RH  068%=      5-min Rain = 0
KRRS 181015Z 20007KT 13/07 A2979 RMK A01 T01270068  RH  069%=      5-min Rain = 0
KRRS 181020Z 20008KT 13/07 A2979 RMK A01 T01300071  RH  069%=      5-min Rain = 0
KRRS 181025Z 20008KT 13/07 A2979 RMK A01 T01320072  RH  069%=      5-min Rain = 0
KRRS 181030Z 20009KT 13/07 A2979 RMK A01 T01320073  RH  069%=      5-min Rain = 0
KRRS 181035Z 20009KT 13/07 A2979 RMK A01 T01340073  RH  069%=      5-min Rain = 0
KRRS 181040Z 20010KT 14/07 A2979 RMK A01 T01350074  RH  068%=      5-min Rain = 0
KRRS 181045Z 19009KT 14/07 A2979 RMK A01 T01350074  RH  068%=      5-min Rain = 0
KRRS 181050Z 19007KT 13/07 A2979 RMK A01 T01310073  RH  069%=      5-min Rain = 0
KRRS 181055Z 19007KT 13/07 A2979 RMK A01 T01260070  RH  070%=      5-min Rain = 0
KRRS 181100Z 19008KT 12/07 A2978 RMK A01 T01220068  RH  071%=      5-min Rain = 0
KRRS 181105Z 19008KT 12/07 A2978 RMK A01 T01200068  RH  072%=      5-min Rain = 0
KRRS 181110Z 18007KT 12/07 A2978 RMK A01 T01190067  RH  072%=      5-min Rain = 0
KRRS 181115Z 20008KT 12/07 A2979 RMK A01 T01150065  RH  073%=      5-min Rain = 0
KRRS 181120Z 21009KT 11/07 A2979 RMK A01 T01110066  RH  076%=      5-min Rain = 0
KRRS 181125Z 20010KT 12/07 A2979 RMK A01 T01180074  RH  077%=      5-min Rain = 0
KRRS 181130Z 20009KT 13/08 A2979 RMK A01 T01270078  RH  074%=      5-min Rain = 0
KRRS 181135Z 21007KT 13/08 A298 RMK A01 T01250078  RH  075%=      5-min Rain = 0
KRRS 181140Z 21006KT 12/08 A298 RMK A01 T01210077  RH  077%=      5-min Rain = 0
KRRS 181145Z 20007KT 12/08 A298 RMK A01 T01200079  RH  078%=      5-min Rain = 0
KRRS 181150Z 19008KT 12/08 A2979 RMK A01 T01240081  RH  077%=      5-min Rain = 0
KRRS 181155Z 19009KT 13/08 A2979 RMK A01 T01270082  RH  076%=      5-min Rain = 0
KRRS 181200Z 19008KT 13/08 A2979 RMK A01 T01270082  RH  076%=      5-min Rain = 0
KRRS 181205Z 19008KT 13/08 A298 RMK A01 T01260081  RH  076%=      5-min Rain = 0
KRRS 181210Z 19009KT 13/08 A2979 RMK A01 T01270083  RH  076%=      5-min Rain = 0
KRRS 181215Z 19010KT 13/08 A2979 RMK A01 T01290084  RH  076%=      5-min Rain = 0
KRRS 181220Z 19010KT 13/08 A298 RMK A01 T01290084  RH  076%=      5-min Rain = 0
KRRS 181225Z 19010KT 13/08 A298 RMK A01 T01300084  RH  076%=      5-min Rain = 0
KRRS 181230Z 19012KT 13/09 A298 RMK A01 T01300085  RH  076%=      5-min Rain = 0
KRRS 181235Z 20012KT 13/09 A2979 RMK A01 T01310086  RH  076%=      5-min Rain = 0
KRRS 181240Z 20011KT 13/09 A2979 RMK A01 T01310086  RH  077%=      5-min Rain = 0
KRRS 181245Z 20011KT 13/09 A2979 RMK A01 T01300087  RH  078%=      5-min Rain = 0
KRRS 181250Z 20011KT 13/09 A2979 RMK A01 T01290087  RH  078%=      5-min Rain = 0
KRRS 181255Z 20011KT 13/09 A2979 RMK A01 T01290088  RH  078%=      5-min Rain = 0
KRRS 181300Z 20012KT 13/09 A2978 RMK A01 T01310090  RH  078%=      5-min Rain = 0
KRRS 181305Z 20011KT 13/09 A2978 RMK A01 T01320091  RH  079%=      5-min Rain = 0
KRRS 181310Z 20011KT 13/09 A2978 RMK A01 T01310091  RH  079%=      5-min Rain = 0
KRRS 181315Z 20012KT 13/09 A2978 RMK A01 T01330093  RH  079%=      5-min Rain = 0
KRRS 181320Z 20011KT 14/10 A2978 RMK A01 T01360095  RH  079%=      5-min Rain = 0
KRRS 181325Z 20013KT 14/10 A2978 RMK A01 T01400096  RH  077%=      5-min Rain = 0
KRRS 181330Z 20013KT 14/10 A2978 RMK A01 T01430097  RH  076%=      5-min Rain = 0
KRRS 181335Z 20013KT 15/10 A2978 RMK A01 T01460098  RH  076%=      5-min Rain = 0
KRRS 181340Z 21011KT 15/10 A2978 RMK A01 T01480100  RH  075%=      5-min Rain = 0
KRRS 181345Z 21012G19KT 15/10 A2978 RMK A01 T01510101  RH  074%=      5-min Rain = 0
KRRS 181350Z 21012KT 15/10 A2978 RMK A01 T01530101  RH  073%=      5-min Rain = 0
KRRS 181355Z 21011KT 16/10 A2978 RMK A01 T01550102  RH  073%=      5-min Rain = 0
KRRS 181400Z 20010KT 16/10 A2978 RMK A01 T01580103  RH  072%=      5-min Rain = 0
KRRS 181405Z 20010KT 16/11 A2978 RMK A01 T01610105  RH  072%=      5-min Rain = 0
KRRS 181410Z 20010G15KT 17/11 A2978 RMK A01 T01650107  RH  071%=      5-min Rain = 0
KRRS 181415Z 20011KT 17/11 A2978 RMK A01 T01700110  RH  070%=      5-min Rain = 0
KRRS 181420Z 20011G18KT 18/11 A2978 RMK A01 T01750112  RH  069%=      5-min Rain = 0
KRRS 181425Z 20013KT 18/11 A2978 RMK A01 T01790113  RH  068%=      5-min Rain = 0
KRRS 181430Z 20014G20KT 18/11 A2978 RMK A01 T01810113  RH  067%=      5-min Rain = 0
KRRS 181435Z 20015G21KT 18/11 A2978 RMK A01 T01830112  RH  066%=      5-min Rain = 0
KRRS 181440Z 19014G21KT 18/11 A2978 RMK A01 T01840112  RH  065%=      5-min Rain = 0
KRRS 181445Z 20013G18KT 19/11 A2978 RMK A01 T01870112  RH  064%=      5-min Rain = 0
KRRS 181450Z 19013G19KT 19/11 A2978 RMK A01 T01890112  RH  063%=      5-min Rain = 0
KRRS 181455Z 19014G19KT 19/11 A2978 RMK A01 T01930112  RH  062%=      5-min Rain = 0
KRRS 181500Z 20014G20KT 20/11 A2978 RMK A01 T01960112  RH  061%=      5-min Rain = 0
KRRS 181505Z 21013KT 20/11 A2978 RMK A01 T01980113  RH  060%=      5-min Rain = 0
KRRS 181510Z 21013G18KT 20/11 A2978 RMK A01 T02000113  RH  059%=      5-min Rain = 0
KRRS 181515Z 20014KT 20/11 A2977 RMK A01 T02020113  RH  058%=      5-min Rain = 0
KRRS 181520Z 20013KT 21/11 A2977 RMK A01 T02060114  RH  058%=      5-min Rain = 0
KRRS 181525Z 20014KT 21/11 A2977 RMK A01 T02090114  RH  056%=      5-min Rain = 0
KRRS 181530Z 20013G18KT 21/11 A2977 RMK A01 T02120114  RH  056%=      5-min Rain = 0
KRRS 181535Z 20016KT 21/11 A2977 RMK A01 T02120113  RH  055%=      5-min Rain = 0
KRRS 181540Z 20013KT 21/11 A2977 RMK A01 T02130114  RH  055%=      5-min Rain = 0
KRRS 181545Z 19014G20KT 22/12 A2977 RMK A01 T02160116  RH  055%=      5-min Rain = 0
KRRS 181550Z 20014G19KT 22/12 A2976 RMK A01 T02180115  RH  054%=      5-min Rain = 0
KRRS 181555Z 19013G18KT 22/12 A2976 RMK A01 T02190115  RH  054%=      5-min Rain = 0
KRRS 181600Z 19012G17KT 22/12 A2977 RMK A01 T02180115  RH  054%=      5-min Rain = 0
KRRS 181605Z 19010G15KT 22/12 A2977 RMK A01 T02210116  RH  053%=      5-min Rain = 0
KRRS 181610Z 18012G18KT 22/11 A2976 RMK A01 T02240114  RH  052%=      5-min Rain = 0
KRRS 181615Z 19011G17KT 23/12 A2976 RMK A01 T02290118  RH  051%=      5-min Rain = 0
KRRS 181620Z 19013G18KT 23/12 A2976 RMK A01 T02310116  RH  050%=      5-min Rain = 0
KRRS 181625Z 20013KT 23/12 A2975 RMK A01 T02290115  RH  050%=      5-min Rain = 0
KRRS 181630Z 19012G19KT 23/12 A2975 RMK A01 T02320116  RH  050%=      5-min Rain = 0
KRRS 181635Z 19016KT 23/11 A2975 RMK A01 T02320114  RH  049%=      5-min Rain = 0
KRRS 181640Z 19016KT 23/11 A2975 RMK A01 T02320114  RH  049%=      5-min Rain = 0
KRRS 181645Z 19014KT 24/12 A2975 RMK A01 T02360116  RH  049%=      5-min Rain = 0
KRRS 181650Z 19012KT 24/12 A2974 RMK A01 T02410120  RH  048%=      5-min Rain = 0
KRRS 181655Z 18014KT 25/12 A2974 RMK A01 T02450117  RH  046%=      5-min Rain = 0
KRRS 181700Z 18013KT 25/12 A2974 RMK A01 T02470117  RH  046%=      5-min Rain = 0
KRRS 181705Z 19016KT 25/12 A2974 RMK A01 T02470116  RH  045%=      5-min Rain = 0
KRRS 181710Z 19016KT 25/12 A2974 RMK A01 T02480115  RH  045%=      5-min Rain = 0
KRRS 181715Z 20015KT 25/12 A2974 RMK A01 T02490117  RH  045%=      5-min Rain = 0
KRRS 181720Z 19013G19KT 25/12 A2974 RMK A01 T02530119  RH  045%=      5-min Rain = 0
KRRS 181725Z 18014KT 25/12 A2974 RMK A01 T02540118  RH  044%=      5-min Rain = 0
KRRS 181730Z 19015KT 26/12 A2974 RMK A01 T02560119  RH  044%=      5-min Rain = 0
KRRS 181735Z 20013G19KT 26/12 A2973 RMK A01 T02570118  RH  044%=      5-min Rain = 0
KRRS 181740Z 18013KT 26/12 A2973 RMK A01 T02590119  RH  043%=      5-min Rain = 0
KRRS 181745Z 18012G19KT 26/12 A2973 RMK A01 T02600120  RH  043%=      5-min Rain = 0
KRRS 181750Z 17013KT 26/12 A2972 RMK A01 T02640121  RH  042%=      5-min Rain = 0
KRRS 181755Z 18014G19KT 27/12 A2972 RMK A01 T02650121  RH  042%=      5-min Rain = 0
KRRS 181800Z 18012G17KT 26/12 A2972 RMK A01 T02590120  RH  043%=      5-min Rain = 0
KRRS 181805Z 17014G19KT 26/12 A2971 RMK A01 T02610120  RH  043%=      5-min Rain = 0
KRRS 181810Z 18015G20KT 27/12 A2971 RMK A01 T02670121  RH  042%=      5-min Rain = 0
KRRS 181815Z 18015G20KT 27/12 A2971 RMK A01 T02700120  RH  041%=      5-min Rain = 0
KRRS 181820Z 18015KT 27/12 A2971 RMK A01 T02680121  RH  041%=      5-min Rain = 0
KRRS 181825Z 19015G20KT 27/12 A297 RMK A01 T02730123  RH  041%=      5-min Rain = 0
KRRS 181830Z 18017KT 27/12 A297 RMK A01 T02700119  RH  041%=      5-min Rain = 0
KRRS 181835Z 20013G18KT 26/12 A297 RMK A01 T02630121  RH  043%=      5-min Rain = 0
KRRS 181840Z 20015KT 26/12 A297 RMK A01 T02640122  RH  043%=      5-min Rain = 0
KRRS 181845Z 19013KT 27/12 A2969 RMK A01 T02650122  RH  043%=      5-min Rain = 0
KRRS 181850Z 19017G22KT 26/12 A2969 RMK A01 T02630121  RH  043%=      5-min Rain = 0
KRRS 181855Z 21016G22KT 26/12 A2969 RMK A01 T02580120  RH  044%=      5-min Rain = 0
KRRS 181900Z 20014KT 26/12 A2969 RMK A01 T02580120  RH  044%=      5-min Rain = 0
KRRS 181905Z 20012G17KT 27/13 A2968 RMK A01 T02670126  RH  043%=      5-min Rain = 0
KRRS 181910Z 20015G20KT 28/12 A2968 RMK A01 T02750123  RH  040%=      5-min Rain = 0
KRRS 181915Z 19015G20KT 27/12 A2967 RMK A01 T02680121  RH  041%=      5-min Rain = 0
KRRS 181920Z 19014G20KT 27/12 A2967 RMK A01 T02700123  RH  042%=      5-min Rain = 0
KRRS 181925Z 20015G21KT 28/12 A2967 RMK A01 T02750122  RH  040%=      5-min Rain = 0
KRRS 181930Z 20013G22KT 28/12 A2966 RMK A01 T02770124  RH  040%=      5-min Rain = 0
KRRS 181935Z 21014G21KT 28/13 A2966 RMK A01 T02830126  RH  039%=      5-min Rain = 0
KRRS 181940Z 20013G18KT 28/13 A2966 RMK A01 T02840125  RH  039%=      5-min Rain = 0
KRRS 181945Z 20014G20KT 28/12 A2966 RMK A01 T02770122  RH  040%=      5-min Rain = 0
KRRS 181950Z 19014G21KT 29/13 A2965 RMK A01 T02850127  RH  039%=      5-min Rain = 0
KRRS 181955Z 20017G22KT 29/13 A2965 RMK A01 T02880125  RH  038%=      5-min Rain = 0
KRRS 182000Z 18015KT 28/12 A2965 RMK A01 T02820122  RH  039%=      5-min Rain = 0
KRRS 182005Z 18013KT 28/12 A2965 RMK A01 T02780124  RH  040%=      5-min Rain = 0
KRRS 182010Z 18013KT 28/12 A2965 RMK A01 T02830124  RH  039%=      5-min Rain = 0
KRRS 182015Z 19014G19KT 29/13 A2965 RMK A01 T02900126  RH  038%=      5-min Rain = 0
KRRS 182020Z 19012G18KT 29/13 A2964 RMK A01 T02900126  RH  038%=      5-min Rain = 0
KRRS 182025Z 20016G21KT 28/12 A2964 RMK A01 T02840123  RH  038%=      5-min Rain = 0
KRRS 182030Z 19014G19KT 29/12 A2964 RMK A01 T02850124  RH  038%=      5-min Rain = 0
KRRS 182035Z 18012G20KT 29/12 A2963 RMK A01 T02900124  RH  037%=      5-min Rain = 0
KRRS 182040Z 20014G21KT 29/12 A2963 RMK A01 T02930124  RH  037%=      5-min Rain = 0
KRRS 182045Z 20014KT 29/12 A2963 RMK A01 T02920124  RH  037%=      5-min Rain = 0
KRRS 182050Z 19015G20KT 30/12 A2962 RMK A01 T02950121  RH  036%=      5-min Rain = 0
KRRS 182055Z 19014KT 30/12 A2962 RMK A01 T02950123  RH  036%=      5-min Rain = 0
KRRS 182100Z 19015G20KT 30/12 A2962 RMK A01 T02970124  RH  036%=      5-min Rain = 0
KRRS 182105Z 19015G20KT 30/12 A2961 RMK A01 T02980121  RH  035%=      5-min Rain = 0
KRRS 182110Z 19014G21KT 30/12 A2961 RMK A01 T02960122  RH  036%=      5-min Rain = 0
KRRS 182115Z 18013G19KT 30/12 A2961 RMK A01 T02970123  RH  036%=      5-min Rain = 0
KRRS 182120Z 17012KT 30/12 A2961 RMK A01 T02970122  RH  035%=      5-min Rain = 0
KRRS 182125Z 18016G22KT 30/12 A2961 RMK A01 T02980122  RH  035%=      5-min Rain = 0
KRRS 182130Z 19013G18KT 30/12 A2961 RMK A01 T02970122  RH  035%=      5-min Rain = 0
KRRS 182135Z 18016G22KT 30/12 A2961 RMK A01 T02970121  RH  035%=      5-min Rain = 0
KRRS 182140Z 18014G19KT 30/12 A2961 RMK A01 T02980121  RH  035%=      5-min Rain = 0
KRRS 182145Z 18016G22KT 30/12 A2961 RMK A01 T03000120  RH  034%=      5-min Rain = 0
KRRS 182150Z 19016G21KT 30/12 A296 RMK A01 T03010120  RH  034%=      5-min Rain = 0
KRRS 182155Z 18016KT 30/12 A296 RMK A01 T03010121  RH  034%=      5-min Rain = 0
KRRS 182200Z 19016G21KT 30/12 A296 RMK A01 T03000120  RH  034%=      5-min Rain = 0
KRRS 182205Z 19015KT 30/12 A2961 RMK A01 T02950120  RH  035%=      5-min Rain = 0
KRRS 182210Z 18011KT 29/12 A2961 RMK A01 T02850120  RH  037%=      5-min Rain = 0
KRRS 182215Z 18010KT 29/12 A2961 RMK A01 T02850123  RH  038%=      5-min Rain = 0
KRRS 182220Z 18013G20KT 29/12 A296 RMK A01 T02920123  RH  037%=      5-min Rain = 0
KRRS 182225Z 17014KT 29/12 A296 RMK A01 T02870120  RH  037%=      5-min Rain = 0
KRRS 182230Z 17013G19KT 28/12 A296 RMK A01 T02820121  RH  038%=      5-min Rain = 0
KRRS 182235Z 17012KT 28/12 A296 RMK A01 T02820123  RH  039%=      5-min Rain = 0
KRRS 182240Z 18012G17KT 29/12 A296 RMK A01 T02880124  RH  038%=      5-min Rain = 0
KRRS 182245Z 18012KT 29/12 A296 RMK A01 T02900124  RH  037%=      5-min Rain = 0
KRRS 182250Z 18011KT 29/12 A296 RMK A01 T02860124  RH  038%=      5-min Rain = 0
KRRS 182255Z 18012KT 28/12 A296 RMK A01 T02840124  RH  039%=      5-min Rain = 0
KRRS 182300Z 19012KT 29/12 A296 RMK A01 T02890124  RH  038%=      5-min Rain = 0
KRRS 182305Z 18011KT 29/12 A296 RMK A01 T02910124  RH  037%=      5-min Rain = 0
KRRS 182310Z 18015KT 29/12 A296 RMK A01 T02900123  RH  037%=      5-min Rain = 0
KRRS 182315Z 18012G17KT 29/12 A296 RMK A01 T02860124  RH  038%=      5-min Rain = 0
KRRS 182320Z 18013KT 28/12 A296 RMK A01 T02840123  RH  038%=      5-min Rain = 0
KRRS 182325Z 18013G19KT 28/12 A296 RMK A01 T02830123  RH  039%=      5-min Rain = 0
KRRS 182330Z 18013G18KT 28/12 A296 RMK A01 T02810122  RH  039%=      5-min Rain = 0
KRRS 182335Z 19012KT 28/12 A296 RMK A01 T02780122  RH  039%=      5-min Rain = 0
KRRS 182340Z 20010G15KT 28/12 A2961 RMK A01 T02770123  RH  040%=      5-min Rain = 0
KRRS 182345Z 21010G15KT 27/12 A2961 RMK A01 T02730124  RH  041%=      5-min Rain = 0
KRRS 182350Z 20012KT 27/12 A2961 RMK A01 T02710123  RH  041%=      5-min Rain = 0
KRRS 182355Z 20010KT 27/12 A2961 RMK A01 T02670123  RH  042%=      5-min Rain = 0
KRRS 190000Z 19009KT 26/12 A2961 RMK A01 T02620124  RH  044%=      5-min Rain = 0
KRRS 190005Z 20008KT 26/12 A2961 RMK A01 T02580124  RH  045%=      5-min Rain = 0
KRRS 190010Z 20008KT 25/12 A2961 RMK A01 T02510124  RH  047%=      5-min Rain = 0
KRRS 190015Z 21008KT 25/12 A2961 RMK A01 T02470119  RH  047%=      5-min Rain = 0
KRRS 190020Z 21008KT 24/11 A2961 RMK A01 T02430114  RH  046%=      5-min Rain = 0
KRRS 190025Z 21008KT 24/11 A2961 RMK A01 T02370108  RH  046%=      5-min Rain = 0
KRRS 190030Z 21008KT 23/10 A2961 RMK A01 T02340100  RH  044%=      5-min Rain = 0
KRRS 190035Z 21007KT 23/10 A2961 RMK A01 T02300095  RH  044%=      5-min Rain = 0
KRRS 190040Z 21007KT 23/09 A2961 RMK A01 T02270093  RH  044%=      5-min Rain = 0
KRRS 190045Z 21008KT 23/09 A2961 RMK A01 T02250092  RH  044%=      5-min Rain = 0
KRRS 190050Z 21008KT 23/09 A2961 RMK A01 T02260092  RH  044%=      5-min Rain = 0
KRRS 190055Z 21007KT 22/09 A2961 RMK A01 T02240092  RH  044%=      5-min Rain = 0
KRRS 190100Z 21007KT 22/09 A2961 RMK A01 T02220093  RH  045%=      5-min Rain = 0
KRRS 190105Z 21007KT 22/09 A2962 RMK A01 T02200093  RH  046%=      5-min Rain = 0
KRRS 190110Z 21007KT 22/09 A2962 RMK A01 T02170094  RH  047%=      5-min Rain = 0
KRRS 190115Z 21008KT 22/10 A2962 RMK A01 T02150095  RH  048%=      5-min Rain = 0
KRRS 190120Z 23011G22KT 22/10 A2964 RMK A01 T02160095  RH  047%=      5-min Rain = 0
KRRS 190125Z 27027G37KT 24/08 A2964 RMK A01 T02350080  RH  038%=      5-min Rain = 0
KRRS 190130Z 29023G33KT 25/07 A2963 RMK A01 T02450068  RH  033%=      5-min Rain = 0
KRRS 190135Z 28013G19KT 25/08 A2962 RMK A01 T02450077  RH  035%=      5-min Rain = 0
KRRS 190140Z 24013KT 26/07 A2962 RMK A01 T02570070  RH  031%=      5-min Rain = 0
KRRS 190145Z 24011G16KT 26/07 A2963 RMK A01 T02600072  RH  031%=      5-min Rain = 0
KRRS 190150Z 27008KT 25/08 A2963 RMK A01 T02540076  RH  033%=      5-min Rain = 0
KRRS 190155Z 27008KT 24/09 A2963 RMK A01 T02380090  RH  040%=      5-min Rain = 0
KRRS 190200Z 26007KT 23/09 A2963 RMK A01 T02260091  RH  044%=      5-min Rain = 0
KRRS 190205Z 24005KT 22/09 A2963 RMK A01 T02190093  RH  046%=      5-min Rain = 0
KRRS 190210Z 23005KT 21/09 A2963 RMK A01 T02110093  RH  048%=      5-min Rain = 0
KRRS 190215Z 24006G13KT 21/09 A2964 RMK A01 T02070093  RH  049%=      5-min Rain = 0
KRRS 190220Z 28017G30KT 21/10 A2966 RMK A01 T02060100  RH  052%=      5-min Rain = 0
KRRS 190225Z 28012G18KT 21/10 A2966 RMK A01 T02060104  RH  054%=      5-min Rain = 0
KRRS 190230Z 26010KT 20/11 A2967 RMK A01 T02040111  RH  057%=      5-min Rain = 0
KRRS 190235Z 28010KT 20/11 A2967 RMK A01 T02010111  RH  058%=      5-min Rain = 0
KRRS 190240Z 27009KT 20/11 A2968 RMK A01 T02020111  RH  058%=      5-min Rain = 0
KRRS 190245Z 27008KT 20/11 A2968 RMK A01 T02020109  RH  057%=      5-min Rain = 0
KRRS 190250Z 26008KT 20/11 A2968 RMK A01 T02000109  RH  058%=      5-min Rain = 0
KRRS 190255Z 26009KT 20/11 A2969 RMK A01 T01970110  RH  059%=      5-min Rain = 0
KRRS 190300Z 26007KT 20/11 A2969 RMK A01 T01950111  RH  060%=      5-min Rain = 0
KRRS 190305Z 26006KT 19/11 A2968 RMK A01 T01930110  RH  061%=      5-min Rain = 0
KRRS 190310Z 27007KT 19/11 A2968 RMK A01 T01920111  RH  062%=      5-min Rain = 0
KRRS 190315Z 27007KT 19/11 A2968 RMK A01 T01900112  RH  063%=      5-min Rain = 0
KRRS 190320Z 27008KT 19/11 A2969 RMK A01 T01890113  RH  064%=      5-min Rain = 0
KRRS 190325Z 27009KT 19/11 A2969 RMK A01 T01870114  RH  065%=      5-min Rain = 0
KRRS 190330Z 27009KT 19/11 A2969 RMK A01 T01870114  RH  065%=      5-min Rain = 0
KRRS 190335Z 27010KT 19/11 A2969 RMK A01 T01890113  RH  064%=      5-min Rain = 0
KRRS 190340Z 28011KT 19/11 A2969 RMK A01 T01910113  RH  063%=      5-min Rain = 0
KRRS 190345Z 28013KT 19/11 A2969 RMK A01 T01930113  RH  062%=      5-min Rain = 0
KRRS 190350Z 28011KT 19/11 A2969 RMK A01 T01910114  RH  063%=      5-min Rain = 0
KRRS 190355Z 28010KT 19/11 A2968 RMK A01 T01890114  RH  064%=      5-min Rain = 0
KRRS 190400Z 27010KT 19/11 A2968 RMK A01 T01880113  RH  064%=      5-min Rain = 0
KRRS 190405Z 27010KT 19/11 A2968 RMK A01 T01890111  RH  063%=      5-min Rain = 0
KRRS 190410Z 26009KT 19/11 A2968 RMK A01 T01880111  RH  063%=      5-min Rain = 0
KRRS 190415Z 26010KT 19/11 A2968 RMK A01 T01860111  RH  064%=      5-min Rain = 0
KRRS 190420Z 26009KT 18/11 A2968 RMK A01 T01830111  RH  065%=      5-min Rain = 0
KRRS 190425Z 27012KT 18/11 A2968 RMK A01 T01810109  RH  065%=      5-min Rain = 0
KRRS 190430Z 27013KT 18/11 A2968 RMK A01 T01830108  RH  064%=      5-min Rain = 0
KRRS 190435Z 28012KT 18/11 A2968 RMK A01 T01820108  RH  064%=      5-min Rain = 0
KRRS 190440Z 28012KT 18/11 A2968 RMK A01 T01790107  RH  065%=      5-min Rain = 0
KRRS 190445Z 28012KT 18/11 A2968 RMK A01 T01770107  RH  066%=      5-min Rain = 0
KRRS 190450Z 28011KT 18/11 A2968 RMK A01 T01750107  RH  066%=      5-min Rain = 0
KRRS 190455Z 28011KT 17/11 A2968 RMK A01 T01730106  RH  067%=      5-min Rain = 0

Page generated in 0.0093 seconds.